createdAt,value
2017-11-03T00:00:36.114Z,8.43
2017-11-03T00:03:03.697Z,10.40
2017-11-03T00:05:31.106Z,6.07
2017-11-03T00:07:58.540Z,10.80
2017-11-03T00:10:25.994Z,7.50
2017-11-03T00:12:53.418Z,8.03
2017-11-03T00:15:21.628Z,5.57
2017-11-03T00:17:49.053Z,12.33
2017-11-03T00:20:17.260Z,7.00
2017-11-03T00:22:44.730Z,5.90
2017-11-03T00:25:12.159Z,7.03
2017-11-03T00:27:39.584Z,5.40
2017-11-03T00:30:07.015Z,5.20
2017-11-03T00:32:34.444Z,4.67
2017-11-03T00:35:01.867Z,5.13
2017-11-03T00:37:29.302Z,11.13
2017-11-03T00:39:56.730Z,5.23
2017-11-03T00:42:24.219Z,7.13
2017-11-03T00:44:51.650Z,6.43
2017-11-03T00:47:19.073Z,9.10
2017-11-03T00:49:46.612Z,7.27
2017-11-03T00:52:14.033Z,7.60
2017-11-03T00:54:41.481Z,5.60
2017-11-03T00:57:09.682Z,6.40
2017-11-03T00:59:37.166Z,3.70
2017-11-03T01:02:04.599Z,5.87
2017-11-03T01:04:32.019Z,6.80
2017-11-03T01:06:59.451Z,6.97
2017-11-03T01:09:26.911Z,9.60
2017-11-03T01:11:54.346Z,6.77
2017-11-03T01:14:21.774Z,6.60
2017-11-03T01:16:49.304Z,17.03
2017-11-03T01:19:16.789Z,3.43
2017-11-03T01:21:44.215Z,5.63
2017-11-03T01:24:11.678Z,9.80
2017-11-03T01:26:39.115Z,8.63
2017-11-03T01:29:06.594Z,7.43
2017-11-03T01:31:34.031Z,4.00
2017-11-03T01:34:01.522Z,5.37
2017-11-03T01:36:28.963Z,7.60
2017-11-03T01:38:56.430Z,11.17
2017-11-03T01:41:23.857Z,6.27
2017-11-03T01:43:52.287Z,12.00
2017-11-03T01:46:19.717Z,7.13
2017-11-03T01:48:47.935Z,9.50
2017-11-03T01:51:15.353Z,5.17
2017-11-03T01:53:43.543Z,10.10
2017-11-03T01:56:10.989Z,5.13
2017-11-03T01:58:39.174Z,3.10
2017-11-03T02:01:06.666Z,8.20
2017-11-03T02:03:34.086Z,6.63
2017-11-03T02:06:02.291Z,13.80
2017-11-03T02:08:29.718Z,11.13
2017-11-03T02:10:57.918Z,5.23
2017-11-03T02:13:25.410Z,10.53
2017-11-03T02:15:52.894Z,4.73
2017-11-03T02:18:20.315Z,6.30
2017-11-03T02:20:47.786Z,3.37
2017-11-03T02:23:15.254Z,5.40
2017-11-03T02:25:42.678Z,17.47
2017-11-03T02:28:10.875Z,4.57
2017-11-03T02:30:38.302Z,17.00
2017-11-03T02:33:06.503Z,4.90
2017-11-03T02:35:33.995Z,6.13
2017-11-03T02:38:01.455Z,10.77
2017-11-03T02:40:29.643Z,8.87
2017-11-03T02:42:57.090Z,5.17
2017-11-03T02:45:24.563Z,11.43
2017-11-03T02:47:51.998Z,9.10
2017-11-03T02:50:19.423Z,5.13
2017-11-03T02:52:46.946Z,8.93
2017-11-03T02:55:14.367Z,4.90
2017-11-03T02:57:42.562Z,6.87
2017-11-03T03:00:10.037Z,28.53
2017-11-03T03:02:37.471Z,6.97
2017-11-03T03:05:04.893Z,8.60
2017-11-03T03:07:32.427Z,12.13
2017-11-03T03:09:59.926Z,4.70
2017-11-03T03:12:28.127Z,6.30
2017-11-03T03:14:56.312Z,11.17
2017-11-03T03:17:23.802Z,5.60
2017-11-03T03:19:51.266Z,9.50
2017-11-03T03:22:18.699Z,7.77
2017-11-03T03:24:46.242Z,8.13
2017-11-03T03:27:14.453Z,14.40
2017-11-03T03:29:41.930Z,12.33
2017-11-03T03:32:09.402Z,8.57
2017-11-03T03:34:36.846Z,6.87
2017-11-03T03:37:04.279Z,9.30
2017-11-03T03:39:32.474Z,6.37
2017-11-03T03:41:59.951Z,7.37
2017-11-03T03:44:27.379Z,55.57
2017-11-03T03:46:55.579Z,10.43
2017-11-03T03:49:23.055Z,6.30
2017-11-03T03:51:50.524Z,11.23
2017-11-03T03:54:17.987Z,23.77
2017-11-03T03:56:45.446Z,11.60
2017-11-03T03:59:12.870Z,14.70
2017-11-03T04:01:40.358Z,15.07
2017-11-03T04:04:07.822Z,7.57
2017-11-03T04:06:35.258Z,7.63
2017-11-03T04:09:02.679Z,9.40
2017-11-03T04:11:30.114Z,11.80
2017-11-03T04:13:57.546Z,8.73
2017-11-03T04:16:25.021Z,7.83
2017-11-03T04:18:52.478Z,8.13
2017-11-03T04:21:19.951Z,9.13
2017-11-03T04:23:47.406Z,6.93
2017-11-03T04:26:14.874Z,8.03
2017-11-03T04:28:42.307Z,8.30
2017-11-03T04:31:09.754Z,20.07
2017-11-03T04:33:37.973Z,16.27
2017-11-03T04:36:05.434Z,15.30
2017-11-03T04:38:32.866Z,6.97
2017-11-03T04:41:00.291Z,13.80
2017-11-03T04:43:27.727Z,6.70
2017-11-03T04:45:55.150Z,10.70
2017-11-03T04:48:22.645Z,22.27
2017-11-03T04:50:50.070Z,6.37
2017-11-03T04:53:17.504Z,14.43
2017-11-03T04:55:44.938Z,10.67
2017-11-03T04:58:12.386Z,9.60
2017-11-03T05:00:39.810Z,9.57
2017-11-03T05:03:07.247Z,42.57
2017-11-03T05:05:34.675Z,8.60
2017-11-03T05:08:02.102Z,12.20
2017-11-03T05:10:29.583Z,8.30
2017-11-03T05:12:57.042Z,16.70
2017-11-03T05:15:24.479Z,21.20
2017-11-03T05:17:51.911Z,12.63
2017-11-03T05:20:19.354Z,8.77
2017-11-03T05:22:46.795Z,9.33
2017-11-03T05:25:14.253Z,6.73
2017-11-03T05:27:41.688Z,16.43
2017-11-03T05:30:09.179Z,10.33
2017-11-03T05:32:36.611Z,25.90
2017-11-03T05:35:04.038Z,21.23
2017-11-03T05:37:31.488Z,6.87
2017-11-03T05:39:58.905Z,9.37
2017-11-03T05:42:26.378Z,12.53
2017-11-03T05:44:53.806Z,20.53
2017-11-03T05:47:21.243Z,10.77
2017-11-03T05:49:48.666Z,5.60
2017-11-03T05:52:16.086Z,7.87
2017-11-03T05:54:44.282Z,9.60
2017-11-03T05:57:11.768Z,22.97
2017-11-03T05:59:39.222Z,8.67
2017-11-03T06:02:06.646Z,20.00
2017-11-03T06:04:34.847Z,10.00
2017-11-03T06:07:02.278Z,14.20
2017-11-03T06:09:30.483Z,19.97
2017-11-03T06:11:57.907Z,16.23
2017-11-03T06:14:26.171Z,7.93
2017-11-03T06:16:53.599Z,12.40
2017-11-03T06:19:21.062Z,16.87
2017-11-03T06:21:48.526Z,13.67
2017-11-03T06:24:15.979Z,6.70
2017-11-03T06:26:43.406Z,14.33
2017-11-03T06:29:11.607Z,16.03
2017-11-03T06:31:39.039Z,18.40
2017-11-03T06:34:07.246Z,13.50
2017-11-03T06:36:34.674Z,22.13
2017-11-03T06:39:02.906Z,11.67
2017-11-03T06:41:30.334Z,7.20
2017-11-03T06:43:57.770Z,12.57
2017-11-03T06:46:25.957Z,14.50
2017-11-03T06:48:54.854Z,31.20
2017-11-03T06:51:23.077Z,12.47
2017-11-03T06:53:50.546Z,23.47
2017-11-03T06:56:18.002Z,30.63
2017-11-03T06:58:46.199Z,7.70
2017-11-03T07:01:13.678Z,15.20
2017-11-03T07:03:41.102Z,16.53
2017-11-03T07:06:08.562Z,11.37
2017-11-03T07:08:36.008Z,14.67
2017-11-03T07:11:03.434Z,16.63
2017-11-03T07:13:31.637Z,16.23
2017-11-03T07:15:59.123Z,11.17
2017-11-03T07:18:26.564Z,8.57
2017-11-03T07:20:54.051Z,26.57
2017-11-03T07:23:21.482Z,15.27
2017-11-03T07:25:48.970Z,13.53
2017-11-03T07:28:16.418Z,15.90
2017-11-03T07:30:43.899Z,20.73
2017-11-03T07:33:11.350Z,13.30
2017-11-03T07:35:38.815Z,14.33
2017-11-03T07:38:06.246Z,28.17
2017-11-03T07:40:33.678Z,11.30
2017-11-03T07:43:01.874Z,32.93
2017-11-03T07:45:30.076Z,20.83
2017-11-03T07:47:57.501Z,11.93
2017-11-03T07:50:25.734Z,10.37
2017-11-03T07:52:53.158Z,13.27
2017-11-03T07:55:21.363Z,22.37
2017-11-03T07:57:48.787Z,41.80
2017-11-03T08:00:16.987Z,16.83
2017-11-03T08:02:44.415Z,16.67
2017-11-03T08:05:11.851Z,10.10
2017-11-03T08:07:39.282Z,23.80
2017-11-03T08:10:06.749Z,20.87
2017-11-03T08:12:34.186Z,17.20
2017-11-03T08:15:01.679Z,34.43
2017-11-03T08:17:29.134Z,27.97
2017-11-03T08:19:56.570Z,38.03
2017-11-03T08:22:23.994Z,25.30
2017-11-03T08:24:51.431Z,33.83
2017-11-03T08:27:18.877Z,18.83
2017-11-03T08:29:46.343Z,32.00
2017-11-03T08:32:13.773Z,14.10
2017-11-03T08:34:41.252Z,13.97
2017-11-03T08:37:08.668Z,20.77
2017-11-03T08:39:36.194Z,24.80
2017-11-03T08:42:03.623Z,18.53
2017-11-03T08:44:31.109Z,25.83
2017-11-03T08:46:58.558Z,22.17
2017-11-03T08:49:25.990Z,21.57
2017-11-03T08:51:54.186Z,33.57
2017-11-03T08:54:21.675Z,39.13
2017-11-03T08:56:49.103Z,24.07
2017-11-03T08:59:16.538Z,20.93
2017-11-03T09:01:43.962Z,24.33
2017-11-03T09:04:11.414Z,30.33
2017-11-03T09:06:38.883Z,34.07
2017-11-03T09:09:06.343Z,30.43
2017-11-03T09:11:33.784Z,21.90
2017-11-03T09:14:01.214Z,26.60
2017-11-03T09:16:29.503Z,20.87
2017-11-03T09:18:57.698Z,28.27
2017-11-03T09:21:25.179Z,34.83
2017-11-03T09:23:52.630Z,37.63
2017-11-03T09:26:20.066Z,54.40
2017-11-03T09:28:48.257Z,34.70
2017-11-03T09:31:15.741Z,29.77
2017-11-03T09:33:43.202Z,37.80
2017-11-03T09:36:10.662Z,30.03
2017-11-03T09:38:38.094Z,38.67
2017-11-03T09:41:05.538Z,46.30
2017-11-03T09:43:33.734Z,33.23
2017-11-03T09:46:01.935Z,29.87
2017-11-03T09:48:29.370Z,41.47
2017-11-03T09:50:57.581Z,22.17
2017-11-03T09:53:25.047Z,28.70
2017-11-03T09:55:52.514Z,41.23
2017-11-03T09:58:20.070Z,29.03
2017-11-03T10:00:47.534Z,34.87
2017-11-03T10:03:14.966Z,40.03
2017-11-03T10:05:42.438Z,30.60
2017-11-03T10:08:09.918Z,30.20
2017-11-03T10:10:37.379Z,36.33
2017-11-03T10:13:04.814Z,46.07
2017-11-03T10:15:32.258Z,46.63
2017-11-03T10:18:00.474Z,41.30
2017-11-03T10:20:27.934Z,35.53
2017-11-03T10:22:55.375Z,66.77
2017-11-03T10:25:22.811Z,27.67
2017-11-03T10:27:51.006Z,44.47
2017-11-03T10:30:18.438Z,28.07
2017-11-03T10:32:45.871Z,32.60
2017-11-03T10:35:13.318Z,21.20
2017-11-03T10:37:40.751Z,44.83
2017-11-03T10:40:08.241Z,36.10
2017-11-03T10:42:35.670Z,33.67
2017-11-03T10:45:03.163Z,19.10
2017-11-03T10:47:30.622Z,22.13
2017-11-03T10:49:58.095Z,34.80
2017-11-03T10:52:25.551Z,23.37
2017-11-03T10:54:53.001Z,31.53
2017-11-03T10:57:20.470Z,34.13
2017-11-03T10:59:47.919Z,46.23
2017-11-03T11:02:15.384Z,44.70
2017-11-03T11:04:42.854Z,25.30
2017-11-03T11:07:10.318Z,35.03
2017-11-03T11:09:37.781Z,51.77
2017-11-03T11:12:05.213Z,33.40
2017-11-03T11:14:32.647Z,56.20
2017-11-03T11:17:00.167Z,30.30
2017-11-03T11:19:27.719Z,33.53
2017-11-03T11:21:55.192Z,41.17
2017-11-03T11:24:22.621Z,26.73
2017-11-03T11:26:50.064Z,40.73
2017-11-03T11:29:18.379Z,33.10
2017-11-03T11:31:45.859Z,34.83
2017-11-03T11:34:13.343Z,47.27
2017-11-03T11:36:41.580Z,45.00
2017-11-03T11:39:09.062Z,46.07
2017-11-03T11:41:36.618Z,30.33
2017-11-03T11:44:04.082Z,40.17
2017-11-03T11:46:31.524Z,21.57
2017-11-03T11:48:59.019Z,36.10
2017-11-03T11:51:26.570Z,39.50
2017-11-03T11:53:53.998Z,53.70
2017-11-03T11:56:21.433Z,38.37
2017-11-03T11:58:48.963Z,42.00
2017-11-03T12:01:16.395Z,37.57
2017-11-03T12:03:43.827Z,65.50
2017-11-03T12:06:12.039Z,36.37
2017-11-03T12:08:39.471Z,20.17
2017-11-03T12:11:07.692Z,38.03
2017-11-03T12:13:35.155Z,36.70
2017-11-03T12:16:02.598Z,41.43
2017-11-03T12:18:30.031Z,35.97
2017-11-03T12:20:58.242Z,32.03
2017-11-03T12:23:25.726Z,52.07
2017-11-03T12:25:53.263Z,34.20
2017-11-03T12:28:20.695Z,55.47
2017-11-03T12:30:48.923Z,43.93
2017-11-03T12:33:16.359Z,40.90
2017-11-03T12:35:43.786Z,33.90
2017-11-03T12:38:12.000Z,44.03
2017-11-03T12:40:39.478Z,34.23
2017-11-03T12:43:06.914Z,33.47
2017-11-03T12:45:34.346Z,49.23
2017-11-03T12:48:01.874Z,37.77
2017-11-03T12:50:29.330Z,32.60
2017-11-03T12:52:56.794Z,42.90
2017-11-03T12:55:24.247Z,43.77
2017-11-03T12:57:51.711Z,40.03
2017-11-03T13:00:19.175Z,41.90
2017-11-03T13:02:46.610Z,48.40
2017-11-03T13:05:14.038Z,43.53
2017-11-03T13:07:44.143Z,33.37
2017-11-03T13:10:12.661Z,43.27
2017-11-03T13:12:41.058Z,43.53
2017-11-03T13:15:08.486Z,43.13
2017-11-03T13:17:35.926Z,43.73
2017-11-03T13:20:03.354Z,46.97
2017-11-03T13:22:30.813Z,31.60
2017-11-03T13:24:58.222Z,47.53
2017-11-03T13:27:25.654Z,31.20
2017-11-03T13:29:53.081Z,41.20
2017-11-03T13:32:20.514Z,51.50
2017-11-03T13:34:47.951Z,37.07
2017-11-03T13:37:15.386Z,45.40
2017-11-03T13:39:42.814Z,33.40
2017-11-03T13:42:11.030Z,30.30
2017-11-03T13:44:38.466Z,39.50
2017-11-03T13:47:05.907Z,40.20
2017-11-03T13:49:34.106Z,44.60
2017-11-03T13:52:01.846Z,35.27
2017-11-03T13:54:29.257Z,36.63
2017-11-03T13:56:56.855Z,30.90
2017-11-03T13:59:24.286Z,42.70
2017-11-03T14:01:51.800Z,37.60
2017-11-03T14:04:19.994Z,33.17
2017-11-03T14:06:47.426Z,27.27
2017-11-03T14:09:14.871Z,34.37
2017-11-03T14:11:42.296Z,29.87
2017-11-03T14:14:09.726Z,31.73
2017-11-03T14:16:37.923Z,25.30
2017-11-03T14:19:06.133Z,27.93
2017-11-03T14:21:33.557Z,33.93
2017-11-03T14:24:01.072Z,42.73
2017-11-03T14:26:28.507Z,25.50
2017-11-03T14:28:55.941Z,29.20
2017-11-03T14:31:23.378Z,38.93
2017-11-03T14:33:51.577Z,37.43
2017-11-03T14:36:19.165Z,28.63
2017-11-03T14:38:47.403Z,36.53
2017-11-03T14:41:14.814Z,25.30
2017-11-03T14:43:42.265Z,26.97
2017-11-03T14:46:09.707Z,34.30
2017-11-03T14:48:37.150Z,24.43
2017-11-03T14:51:05.358Z,30.67
2017-11-03T14:53:32.869Z,26.13
2017-11-03T14:56:00.303Z,34.57
2017-11-03T14:58:27.734Z,21.90
2017-11-03T15:00:55.166Z,30.13
2017-11-03T15:03:23.364Z,18.90
2017-11-03T15:05:50.833Z,24.60
2017-11-03T15:08:18.282Z,29.07
2017-11-03T15:10:46.504Z,20.10
2017-11-03T15:13:13.956Z,19.27
2017-11-03T15:15:41.634Z,26.67
2017-11-03T15:18:09.084Z,31.97
2017-11-03T15:20:36.558Z,25.03
2017-11-03T15:23:04.016Z,29.67
2017-11-03T15:25:31.446Z,18.57
2017-11-03T15:27:58.920Z,29.33
2017-11-03T15:30:27.926Z,29.97
2017-11-03T15:32:55.797Z,21.17
2017-11-03T15:35:23.664Z,23.23
2017-11-03T15:37:51.320Z,26.67
2017-11-03T15:40:18.731Z,25.23
2017-11-03T15:42:46.283Z,26.53
2017-11-03T15:45:13.698Z,24.20
2017-11-03T15:47:41.176Z,27.23
2017-11-03T15:50:08.619Z,23.13
2017-11-03T15:52:36.047Z,27.33
2017-11-03T15:55:03.482Z,24.23
2017-11-03T15:57:31.838Z,27.37
2017-11-03T15:59:59.275Z,28.17
2017-11-03T16:02:26.711Z,25.63
2017-11-03T16:04:54.142Z,24.13
2017-11-03T16:07:21.575Z,23.80
2017-11-03T16:09:49.005Z,19.17
2017-11-03T16:12:17.197Z,32.03
2017-11-03T16:14:44.630Z,19.43
2017-11-03T16:17:12.054Z,24.90
2017-11-03T16:19:39.486Z,29.07
2017-11-03T16:22:06.911Z,20.63
2017-11-03T16:24:34.351Z,26.30
2017-11-03T16:27:01.789Z,26.37
2017-11-03T16:29:29.222Z,16.90
2017-11-03T16:31:57.434Z,27.87
2017-11-03T16:34:24.872Z,31.13
2017-11-03T16:36:52.302Z,18.73
2017-11-03T16:39:19.728Z,14.40
2017-11-03T16:41:47.213Z,14.33
2017-11-03T16:44:14.647Z,18.20
2017-11-03T16:46:42.185Z,20.20
2017-11-03T16:49:09.602Z,25.90
2017-11-03T16:51:37.034Z,17.77
2017-11-03T16:54:04.472Z,16.47
2017-11-03T16:56:31.897Z,15.93
2017-11-03T16:58:59.330Z,25.60
2017-11-03T17:01:26.757Z,22.83
2017-11-03T17:03:54.198Z,21.27
2017-11-03T17:06:21.626Z,21.10
2017-11-03T17:08:49.059Z,25.20
2017-11-03T17:11:16.494Z,24.30
2017-11-03T17:13:43.968Z,39.73
2017-11-03T17:16:11.395Z,20.13
2017-11-03T17:18:38.836Z,25.73
2017-11-03T17:21:06.286Z,29.60
2017-11-03T17:23:34.485Z,20.83
2017-11-03T17:26:02.689Z,23.63
2017-11-03T17:28:30.190Z,18.03
2017-11-03T17:30:57.626Z,22.07
2017-11-03T17:33:25.086Z,23.60
2017-11-03T17:35:52.551Z,19.17
2017-11-03T17:38:20.035Z,18.13
2017-11-03T17:40:47.475Z,17.30
2017-11-03T17:43:14.907Z,16.20
2017-11-03T17:45:42.402Z,25.30
2017-11-03T17:48:09.882Z,15.87
2017-11-03T17:50:37.406Z,24.90
2017-11-03T17:53:04.835Z,21.17
2017-11-03T17:55:33.030Z,18.53
2017-11-03T17:58:00.461Z,19.60
2017-11-03T18:00:27.895Z,25.40
2017-11-03T18:02:55.329Z,26.73
2017-11-03T18:05:22.762Z,27.00
2017-11-03T18:07:50.951Z,20.27
2017-11-03T18:10:18.487Z,21.27
2017-11-03T18:12:46.682Z,18.17
2017-11-03T18:15:14.890Z,18.20
2017-11-03T18:17:42.319Z,21.13
2017-11-03T18:20:10.559Z,21.00
2017-11-03T18:22:38.344Z,13.97
2017-11-03T18:25:05.877Z,23.93
2017-11-03T18:27:33.303Z,16.10
2017-11-03T18:30:01.618Z,21.80
2017-11-03T18:32:29.042Z,10.13
2017-11-03T18:34:57.276Z,25.13
2017-11-03T18:37:24.692Z,20.53
2017-11-03T18:39:52.179Z,29.23
2017-11-03T18:42:19.651Z,20.97
2017-11-03T18:44:47.090Z,20.33
2017-11-03T18:47:14.649Z,25.80
2017-11-03T18:49:42.083Z,17.43
2017-11-03T18:52:10.295Z,18.80
2017-11-03T18:54:37.762Z,10.43
2017-11-03T18:57:05.221Z,21.17
2017-11-03T18:59:32.809Z,13.70
2017-11-03T19:02:00.239Z,19.10
2017-11-03T19:04:27.682Z,31.07
2017-11-03T19:06:55.135Z,17.47
2017-11-03T19:09:22.546Z,14.27
2017-11-03T19:11:49.990Z,21.07
2017-11-03T19:14:17.458Z,17.13
2017-11-03T19:16:44.914Z,26.43
2017-11-03T19:19:12.342Z,13.37
2017-11-03T19:21:40.551Z,9.53
2017-11-03T19:24:07.970Z,19.67
2017-11-03T19:26:36.197Z,26.40
2017-11-03T19:29:03.621Z,23.30
2017-11-03T19:31:31.826Z,19.00
2017-11-03T19:33:59.265Z,13.10
2017-11-03T19:36:26.701Z,20.30
2017-11-03T19:38:54.122Z,18.27
2017-11-03T19:41:21.654Z,23.47
2017-11-03T19:43:49.095Z,21.30
2017-11-03T19:46:17.305Z,25.07
2017-11-03T19:48:44.725Z,42.90
2017-11-03T19:51:12.958Z,18.57
2017-11-03T19:53:40.433Z,17.40
2017-11-03T19:56:07.881Z,13.47
2017-11-03T19:58:35.347Z,17.47
2017-11-03T20:01:07.343Z,10.03
2017-11-03T20:03:34.780Z,14.30
2017-11-03T20:06:02.245Z,13.50
2017-11-03T20:08:29.693Z,22.60
2017-11-03T20:10:57.290Z,15.03
2017-11-03T20:13:24.731Z,9.60
2017-11-03T20:15:52.179Z,6.73
2017-11-03T20:18:21.386Z,5.73
2017-11-03T20:20:48.838Z,8.97
2017-11-03T20:23:16.294Z,5.80
2017-11-03T20:25:43.771Z,22.50
2017-11-03T20:28:11.226Z,5.97
2017-11-03T20:30:38.658Z,6.33
2017-11-03T20:33:06.087Z,10.87
2017-11-03T20:35:33.528Z,13.73
2017-11-03T20:38:00.959Z,8.67
2017-11-03T20:40:28.393Z,5.00
2017-11-03T20:42:56.574Z,9.73
2017-11-03T20:45:24.010Z,3.63
2017-11-03T20:47:51.427Z,6.77
2017-11-03T20:50:18.907Z,12.87
2017-11-03T20:52:46.338Z,6.50
2017-11-03T20:55:13.754Z,6.33
2017-11-03T20:57:41.190Z,6.50
2017-11-03T21:00:08.631Z,5.17
2017-11-03T21:02:36.101Z,4.53
2017-11-03T21:05:03.507Z,6.73
2017-11-03T21:07:31.254Z,5.20
2017-11-03T21:09:58.873Z,5.30
2017-11-03T21:12:26.291Z,4.70
2017-11-03T21:14:53.712Z,11.43
2017-11-03T21:17:21.143Z,14.47
2017-11-03T21:19:48.568Z,11.30
2017-11-03T21:22:16.003Z,5.20
2017-11-03T21:24:43.423Z,7.93
2017-11-03T21:27:10.963Z,8.20
2017-11-03T21:29:39.148Z,11.47
2017-11-03T21:32:07.402Z,6.50
2017-11-03T21:34:34.859Z,5.03
2017-11-03T21:37:02.305Z,6.90
2017-11-03T21:39:29.719Z,8.83
2017-11-03T21:41:57.993Z,6.47
2017-11-03T21:44:26.190Z,12.23
2017-11-03T21:46:53.618Z,10.23
2017-11-03T21:49:21.054Z,5.50
2017-11-03T21:51:48.594Z,13.20
2017-11-03T21:54:16.015Z,5.50
2017-11-03T21:56:44.248Z,6.90
2017-11-03T21:59:11.655Z,5.40
2017-11-03T22:01:39.104Z,3.40
2017-11-03T22:04:06.536Z,5.40
2017-11-03T22:06:35.882Z,6.07
2017-11-03T22:09:03.314Z,6.83
2017-11-03T22:11:30.767Z,4.50
2017-11-03T22:13:58.177Z,7.50
2017-11-03T22:16:25.653Z,5.70
2017-11-03T22:18:53.071Z,7.80
2017-11-03T22:21:20.506Z,13.57
2017-11-03T22:23:47.959Z,6.23
2017-11-03T22:26:15.366Z,7.27
2017-11-03T22:28:43.563Z,12.03
2017-11-03T22:31:10.987Z,6.57
2017-11-03T22:33:38.402Z,7.20
2017-11-03T22:36:05.818Z,3.93
2017-11-03T22:38:34.038Z,4.80
2017-11-03T22:41:01.454Z,4.53
2017-11-03T22:43:29.681Z,10.60
2017-11-03T22:45:57.111Z,12.90
2017-11-03T22:48:25.313Z,7.70
2017-11-03T22:50:52.811Z,7.20
2017-11-03T22:53:20.327Z,9.40
2017-11-03T22:55:47.810Z,14.87
2017-11-03T22:58:15.238Z,5.40
2017-11-03T23:00:43.450Z,6.03
2017-11-03T23:03:10.883Z,7.43
2017-11-03T23:05:38.297Z,5.07
2017-11-03T23:08:05.729Z,7.10
2017-11-03T23:10:33.189Z,7.57
2017-11-03T23:13:00.654Z,11.30
2017-11-03T23:15:28.162Z,6.23
2017-11-03T23:17:55.578Z,5.53
2017-11-03T23:20:23.038Z,6.17
2017-11-03T23:22:50.515Z,4.27
2017-11-03T23:25:18.066Z,12.90
2017-11-03T23:27:45.539Z,17.40
2017-11-03T23:30:12.991Z,12.60
2017-11-03T23:32:40.455Z,8.67
2017-11-03T23:35:07.874Z,6.77
2017-11-03T23:37:36.082Z,3.50
2017-11-03T23:40:03.574Z,4.60
2017-11-03T23:42:31.099Z,4.40
2017-11-03T23:44:58.506Z,3.20
2017-11-03T23:47:25.935Z,10.50
2017-11-03T23:49:53.391Z,7.10
2017-11-03T23:52:20.853Z,9.17
2017-11-03T23:54:48.329Z,6.63
2017-11-03T23:57:15.785Z,12.23
2017-11-03T23:59:43.237Z,15.80
